Grayling, MI

04:57 PM EDT on April 19, 2015 (GMT -0400)
Grayling | | Change Station
CLOSE
Current Station
Airport
Location: Grayling,
Elevation: 1158 ft
Nearby Weather Stations

Elev 1158 ft 44.68 °N, 84.73 °W | Updated 22 minutes ago

Klart
Klart
62 °F
Feels Like 62 °F
N
18
Vind Växlande Vind from O/SO
Gusts 25 miles/tim

Idag
High -- | Low -- °F
--% Chance of Precip.
Yesterday
High -- | Low -- °F
Precip. -- tum
6:48 AM 8:28 PM
Nymåne, 2% visible
Lufttryck 29.79 tum
Sikt 10.0 miles
Molnigt Klart
Daggpunkt 22 °F
Luftfuktighet 21%
Rainfall 0.00 tum
Snow Depth Not available.
UV 5 out of 12
Pollen 9.80 out of 12
Air Quality Not available.
Flu Activity Regional
METAR KGOV 192035Z AUTO 11016G22KT 10SM CLR 17/M06 A2979 RMK AO2 T01671057

More Conditions Fewer Conditions

Lufttryck 29.79 tum
Sikt 10.0 miles
Molnigt Klart
Daggpunkt 22 °F
Luftfuktighet 21%
Rainfall 0.00 tum
Snow Depth Not available.
UV 5 out of 12
Pollen 9.80 out of 12
Air Quality Not available.
Flu Activity Regional
METAR KGOV 192035Z AUTO 11016G22KT 10SM CLR 17/M06 A2979 RMK AO2 T01671057

More Conditions Fewer Conditions

Nowcast | as of 4:00 PM EDT on April 19, 2015

At 5 PM...partly cloudy. Temperature 59. East winds 17 mph. At 7 PM...mostly cloudy. Chance of rain. Temperature 56. East winds 17 mph. At 9 PM...rain likely. Temperature 50. East winds 16 mph. At 11 PM...rain. Temperature 46. East winds 16 mph.

×

10-Day Weather Forecast

Almanac

Astronomi

Apr. 19, 2015 Rise Set
Actual Time
Civil Twilight
Nautical Twilight
Astronomical Twilight
Månen
Length Of Visible Light
Dagens längd
Tomorrow will be .
, % of the Moon is Illuminated

Today's Extremes

State Highs State Lows

Community

WunderPhotos

Upload Photos

1,814,976 photos uploaded!

WunderBlogs® & News

Nearby

Air Quality

  Air Quality AQ Index Pollutant
Not available.

Snödjup

Station Depth Elevation

Earthquake Activity

Stad Distance Mag. Time & Date
Minimum magnitude displayed is 2.5.

Coastal Water Temperatures

Plats Temperatur

Stations

Nearby Weather Stations

Station Location Temp Vindavkylning Daggpunkt Luftfuktighet Vind Precip. Elev Uppdaterad Type